sensor_id;sensor_type;location;lat;lon;timestamp;P1;durP1;ratioP1;P2;durP2;ratioP2
65757;SDS011;52495;52.208;5.158;2023-05-03T00:00:11;4.43;;;1.77;;
65757;SDS011;52495;52.208;5.158;2023-05-03T00:02:40;5.03;;;1.73;;
65757;SDS011;52495;52.208;5.158;2023-05-03T00:05:09;6.10;;;1.88;;
65757;SDS011;52495;52.208;5.158;2023-05-03T00:07:40;6.13;;;1.92;;
65757;SDS011;52495;52.208;5.158;2023-05-03T00:10:08;8.63;;;2.00;;
65757;SDS011;52495;52.208;5.158;2023-05-03T00:12:37;4.07;;;1.92;;
65757;SDS011;52495;52.208;5.158;2023-05-03T00:15:04;5.28;;;2.08;;
65757;SDS011;52495;52.208;5.158;2023-05-03T00:17:32;5.47;;;2.00;;
65757;SDS011;52495;52.208;5.158;2023-05-03T00:19:59;5.80;;;2.20;;
65757;SDS011;52495;52.208;5.158;2023-05-03T00:22:26;3.53;;;2.05;;
65757;SDS011;52495;52.208;5.158;2023-05-03T00:24:54;6.90;;;2.00;;
65757;SDS011;52495;52.208;5.158;2023-05-03T00:27:21;7.88;;;2.15;;
65757;SDS011;52495;52.208;5.158;2023-05-03T00:29:49;10.15;;;2.30;;
65757;SDS011;52495;52.208;5.158;2023-05-03T00:32:16;6.00;;;2.03;;
65757;SDS011;52495;52.208;5.158;2023-05-03T00:34:43;6.40;;;2.00;;
65757;SDS011;52495;52.208;5.158;2023-05-03T00:37:10;6.63;;;2.00;;
65757;SDS011;52495;52.208;5.158;2023-05-03T00:39:37;5.45;;;2.15;;
65757;SDS011;52495;52.208;5.158;2023-05-03T00:42:05;4.68;;;1.95;;
65757;SDS011;52495;52.208;5.158;2023-05-03T00:44:32;5.95;;;2.30;;
65757;SDS011;52495;52.208;5.158;2023-05-03T00:46:59;4.40;;;1.95;;
65757;SDS011;52495;52.208;5.158;2023-05-03T00:49:26;4.45;;;2.35;;
65757;SDS011;52495;52.208;5.158;2023-05-03T00:51:53;8.10;;;2.38;;
65757;SDS011;52495;52.208;5.158;2023-05-03T00:54:21;5.43;;;2.67;;
65757;SDS011;52495;52.208;5.158;2023-05-03T00:56:48;4.88;;;2.28;;
65757;SDS011;52495;52.208;5.158;2023-05-03T00:59:16;7.93;;;2.90;;
65757;SDS011;52495;52.208;5.158;2023-05-03T01:01:44;6.82;;;2.45;;
65757;SDS011;52495;52.208;5.158;2023-05-03T01:04:13;6.13;;;2.20;;
65757;SDS011;52495;52.208;5.158;2023-05-03T01:06:42;4.93;;;2.35;;
65757;SDS011;52495;52.208;5.158;2023-05-03T01:09:14;8.80;;;2.78;;
65757;SDS011;52495;52.208;5.158;2023-05-03T01:11:48;6.80;;;2.67;;
65757;SDS011;52495;52.208;5.158;2023-05-03T01:14:27;3.97;;;2.35;;
65757;SDS011;52495;52.208;5.158;2023-05-03T01:17:03;5.38;;;2.60;;
65757;SDS011;52495;52.208;5.158;2023-05-03T01:19:35;10.27;;;3.13;;
65757;SDS011;52495;52.208;5.158;2023-05-03T01:22:09;5.78;;;2.42;;
65757;SDS011;52495;52.208;5.158;2023-05-03T01:24:43;9.75;;;2.47;;
65757;SDS011;52495;52.208;5.158;2023-05-03T01:27:14;7.05;;;2.47;;
65757;SDS011;52495;52.208;5.158;2023-05-03T01:29:40;6.53;;;2.65;;
65757;SDS011;52495;52.208;5.158;2023-05-03T01:32:08;4.60;;;2.33;;
65757;SDS011;52495;52.208;5.158;2023-05-03T01:34:43;4.70;;;2.40;;
65757;SDS011;52495;52.208;5.158;2023-05-03T01:37:16;8.00;;;2.50;;
65757;SDS011;52495;52.208;5.158;2023-05-03T01:39:45;6.05;;;3.05;;
65757;SDS011;52495;52.208;5.158;2023-05-03T01:42:17;5.70;;;2.70;;
65757;SDS011;52495;52.208;5.158;2023-05-03T01:44:46;6.90;;;3.05;;
65757;SDS011;52495;52.208;5.158;2023-05-03T01:47:14;4.10;;;2.30;;
65757;SDS011;52495;52.208;5.158;2023-05-03T01:49:41;5.10;;;2.55;;
65757;SDS011;52495;52.208;5.158;2023-05-03T01:52:08;5.80;;;2.65;;
65757;SDS011;52495;52.208;5.158;2023-05-03T01:54:36;7.15;;;3.10;;
65757;SDS011;52495;52.208;5.158;2023-05-03T01:57:03;7.25;;;2.90;;
65757;SDS011;52495;52.208;5.158;2023-05-03T01:59:31;4.53;;;2.50;;
65757;SDS011;52495;52.208;5.158;2023-05-03T02:01:57;7.45;;;3.22;;
65757;SDS011;52495;52.208;5.158;2023-05-03T02:04:24;5.30;;;2.63;;
65757;SDS011;52495;52.208;5.158;2023-05-03T02:06:51;7.15;;;3.53;;
65757;SDS011;52495;52.208;5.158;2023-05-03T02:09:18;6.78;;;2.50;;
65757;SDS011;52495;52.208;5.158;2023-05-03T02:11:44;5.95;;;2.30;;
65757;SDS011;52495;52.208;5.158;2023-05-03T02:14:11;5.15;;;2.72;;
65757;SDS011;52495;52.208;5.158;2023-05-03T02:16:39;6.53;;;2.90;;
65757;SDS011;52495;52.208;5.158;2023-05-03T02:19:07;8.77;;;2.90;;
65757;SDS011;52495;52.208;5.158;2023-05-03T02:21:34;6.70;;;2.50;;
65757;SDS011;52495;52.208;5.158;2023-05-03T02:24:03;5.93;;;2.72;;
65757;SDS011;52495;52.208;5.158;2023-05-03T02:26:30;5.65;;;3.35;;
65757;SDS011;52495;52.208;5.158;2023-05-03T02:28:57;5.70;;;3.08;;
65757;SDS011;52495;52.208;5.158;2023-05-03T02:31:26;10.05;;;3.47;;
65757;SDS011;52495;52.208;5.158;2023-05-03T02:33:56;9.57;;;4.10;;
65757;SDS011;52495;52.208;5.158;2023-05-03T02:36:23;9.07;;;3.75;;
65757;SDS011;52495;52.208;5.158;2023-05-03T02:38:51;8.75;;;3.78;;
65757;SDS011;52495;52.208;5.158;2023-05-03T02:41:18;10.00;;;3.92;;
65757;SDS011;52495;52.208;5.158;2023-05-03T02:43:46;7.50;;;4.13;;
65757;SDS011;52495;52.208;5.158;2023-05-03T02:46:13;6.45;;;3.42;;
65757;SDS011;52495;52.208;5.158;2023-05-03T02:48:39;7.68;;;3.38;;
65757;SDS011;52495;52.208;5.158;2023-05-03T02:51:07;8.65;;;4.03;;
65757;SDS011;52495;52.208;5.158;2023-05-03T02:53:34;6.75;;;3.50;;
65757;SDS011;52495;52.208;5.158;2023-05-03T02:56:02;10.30;;;3.80;;
65757;SDS011;52495;52.208;5.158;2023-05-03T02:58:30;8.43;;;3.67;;
65757;SDS011;52495;52.208;5.158;2023-05-03T03:00:59;6.75;;;3.17;;
65757;SDS011;52495;52.208;5.158;2023-05-03T03:03:28;8.95;;;3.22;;
65757;SDS011;52495;52.208;5.158;2023-05-03T03:05:58;7.75;;;3.90;;
65757;SDS011;52495;52.208;5.158;2023-05-03T03:08:26;9.07;;;3.63;;
65757;SDS011;52495;52.208;5.158;2023-05-03T03:10:57;9.85;;;3.92;;
65757;SDS011;52495;52.208;5.158;2023-05-03T03:13:24;6.97;;;3.25;;
65757;SDS011;52495;52.208;5.158;2023-05-03T03:15:51;8.75;;;3.15;;
65757;SDS011;52495;52.208;5.158;2023-05-03T03:18:17;10.35;;;3.90;;
65757;SDS011;52495;52.208;5.158;2023-05-03T03:20:44;8.93;;;3.45;;
65757;SDS011;52495;52.208;5.158;2023-05-03T03:23:11;6.68;;;3.42;;
65757;SDS011;52495;52.208;5.158;2023-05-03T03:25:40;7.38;;;3.50;;
65757;SDS011;52495;52.208;5.158;2023-05-03T03:28:08;5.88;;;3.70;;
65757;SDS011;52495;52.208;5.158;2023-05-03T03:30:36;7.32;;;3.78;;
65757;SDS011;52495;52.208;5.158;2023-05-03T03:33:14;8.10;;;3.47;;
65757;SDS011;52495;52.208;5.158;2023-05-03T03:35:41;5.65;;;3.35;;
65757;SDS011;52495;52.208;5.158;2023-05-03T03:38:09;7.32;;;4.10;;
65757;SDS011;52495;52.208;5.158;2023-05-03T03:43:10;7.78;;;3.33;;
65757;SDS011;52495;52.208;5.158;2023-05-03T03:45:38;8.60;;;3.33;;
65757;SDS011;52495;52.208;5.158;2023-05-03T03:48:06;9.75;;;3.65;;
65757;SDS011;52495;52.208;5.158;2023-05-03T03:50:33;8.52;;;4.32;;
65757;SDS011;52495;52.208;5.158;2023-05-03T03:53:00;11.15;;;3.80;;
65757;SDS011;52495;52.208;5.158;2023-05-03T03:55:27;7.15;;;3.85;;
65757;SDS011;52495;52.208;5.158;2023-05-03T03:57:57;8.93;;;4.10;;
65757;SDS011;52495;52.208;5.158;2023-05-03T04:00:25;9.23;;;3.72;;
65757;SDS011;52495;52.208;5.158;2023-05-03T04:03:03;6.75;;;3.92;;
65757;SDS011;52495;52.208;5.158;2023-05-03T04:05:31;7.57;;;4.00;;
65757;SDS011;52495;52.208;5.158;2023-05-03T04:07:57;8.30;;;4.22;;
65757;SDS011;52495;52.208;5.158;2023-05-03T04:10:27;8.32;;;3.80;;
65757;SDS011;52495;52.208;5.158;2023-05-03T04:12:54;6.85;;;3.83;;
65757;SDS011;52495;52.208;5.158;2023-05-03T04:15:22;11.77;;;4.45;;
65757;SDS011;52495;52.208;5.158;2023-05-03T04:17:51;7.90;;;4.13;;
65757;SDS011;52495;52.208;5.158;2023-05-03T04:20:18;6.25;;;4.03;;
65757;SDS011;52495;52.208;5.158;2023-05-03T04:22:47;5.65;;;3.95;;
65757;SDS011;52495;52.208;5.158;2023-05-03T04:25:16;6.85;;;3.97;;
65757;SDS011;52495;52.208;5.158;2023-05-03T04:27:50;7.82;;;4.50;;
65757;SDS011;52495;52.208;5.158;2023-05-03T04:30:19;6.70;;;3.88;;
65757;SDS011;52495;52.208;5.158;2023-05-03T04:32:51;11.48;;;4.32;;
65757;SDS011;52495;52.208;5.158;2023-05-03T04:35:20;7.43;;;4.88;;
65757;SDS011;52495;52.208;5.158;2023-05-03T04:37:47;6.30;;;3.50;;
65757;SDS011;52495;52.208;5.158;2023-05-03T04:40:18;7.25;;;4.15;;
65757;SDS011;52495;52.208;5.158;2023-05-03T04:42:52;7.88;;;4.40;;
65757;SDS011;52495;52.208;5.158;2023-05-03T04:45:19;5.85;;;3.85;;
65757;SDS011;52495;52.208;5.158;2023-05-03T04:47:49;7.40;;;3.97;;
65757;SDS011;52495;52.208;5.158;2023-05-03T04:50:17;7.05;;;3.80;;
65757;SDS011;52495;52.208;5.158;2023-05-03T04:52:48;11.48;;;4.65;;
65757;SDS011;52495;52.208;5.158;2023-05-03T04:55:15;6.60;;;4.20;;
65757;SDS011;52495;52.208;5.158;2023-05-03T04:57:43;7.35;;;4.03;;
65757;SDS011;52495;52.208;5.158;2023-05-03T05:00:12;5.97;;;3.58;;
65757;SDS011;52495;52.208;5.158;2023-05-03T05:02:45;5.88;;;4.43;;
65757;SDS011;52495;52.208;5.158;2023-05-03T05:05:13;9.88;;;4.40;;
65757;SDS011;52495;52.208;5.158;2023-05-03T05:07:42;8.35;;;4.35;;
65757;SDS011;52495;52.208;5.158;2023-05-03T05:10:10;6.72;;;3.90;;
65757;SDS011;52495;52.208;5.158;2023-05-03T05:12:39;6.65;;;3.92;;
65757;SDS011;52495;52.208;5.158;2023-05-03T05:15:06;6.80;;;3.90;;
65757;SDS011;52495;52.208;5.158;2023-05-03T05:17:34;7.95;;;4.10;;
65757;SDS011;52495;52.208;5.158;2023-05-03T05:20:03;7.07;;;4.30;;
65757;SDS011;52495;52.208;5.158;2023-05-03T05:22:33;7.63;;;3.95;;
65757;SDS011;52495;52.208;5.158;2023-05-03T05:25:01;8.70;;;4.30;;
65757;SDS011;52495;52.208;5.158;2023-05-03T05:27:28;8.52;;;3.90;;
65757;SDS011;52495;52.208;5.158;2023-05-03T05:29:57;6.80;;;4.40;;
65757;SDS011;52495;52.208;5.158;2023-05-03T05:32:24;10.18;;;4.35;;
65757;SDS011;52495;52.208;5.158;2023-05-03T05:34:51;10.50;;;4.60;;
65757;SDS011;52495;52.208;5.158;2023-05-03T05:37:21;7.55;;;3.95;;
65757;SDS011;52495;52.208;5.158;2023-05-03T05:39:49;8.32;;;4.00;;
65757;SDS011;52495;52.208;5.158;2023-05-03T05:42:20;8.90;;;4.13;;
65757;SDS011;52495;52.208;5.158;2023-05-03T05:44:48;5.70;;;3.70;;
65757;SDS011;52495;52.208;5.158;2023-05-03T05:47:16;8.38;;;4.15;;
65757;SDS011;52495;52.208;5.158;2023-05-03T05:49:44;7.00;;;3.50;;
65757;SDS011;52495;52.208;5.158;2023-05-03T05:52:12;7.15;;;3.58;;
65757;SDS011;52495;52.208;5.158;2023-05-03T05:54:38;10.38;;;3.80;;
65757;SDS011;52495;52.208;5.158;2023-05-03T05:57:05;5.57;;;3.33;;
65757;SDS011;52495;52.208;5.158;2023-05-03T05:59:35;8.32;;;3.85;;
65757;SDS011;52495;52.208;5.158;2023-05-03T06:02:01;2.63;;;2.35;;
65757;SDS011;52495;52.208;5.158;2023-05-03T06:04:28;7.70;;;3.67;;
65757;SDS011;52495;52.208;5.158;2023-05-03T06:06:56;7.32;;;2.95;;
65757;SDS011;52495;52.208;5.158;2023-05-03T06:09:23;9.85;;;2.70;;
65757;SDS011;52495;52.208;5.158;2023-05-03T06:11:53;5.80;;;2.72;;
65757;SDS011;52495;52.208;5.158;2023-05-03T06:14:20;8.45;;;3.13;;
65757;SDS011;52495;52.208;5.158;2023-05-03T06:16:50;7.45;;;3.70;;
65757;SDS011;52495;52.208;5.158;2023-05-03T06:19:16;9.00;;;2.80;;
65757;SDS011;52495;52.208;5.158;2023-05-03T06:21:43;5.72;;;3.20;;
65757;SDS011;52495;52.208;5.158;2023-05-03T06:24:10;11.27;;;3.30;;
65757;SDS011;52495;52.208;5.158;2023-05-03T06:26:39;4.32;;;2.53;;
65757;SDS011;52495;52.208;5.158;2023-05-03T06:29:06;7.30;;;2.78;;
65757;SDS011;52495;52.208;5.158;2023-05-03T06:31:33;5.53;;;2.80;;
65757;SDS011;52495;52.208;5.158;2023-05-03T06:34:01;8.57;;;3.13;;
65757;SDS011;52495;52.208;5.158;2023-05-03T06:36:28;6.72;;;2.97;;
65757;SDS011;52495;52.208;5.158;2023-05-03T06:38:55;7.05;;;2.63;;
65757;SDS011;52495;52.208;5.158;2023-05-03T06:41:22;7.95;;;3.17;;
65757;SDS011;52495;52.208;5.158;2023-05-03T06:43:49;8.73;;;2.80;;
65757;SDS011;52495;52.208;5.158;2023-05-03T06:46:16;6.30;;;2.85;;
65757;SDS011;52495;52.208;5.158;2023-05-03T06:48:43;7.75;;;2.67;;
65757;SDS011;52495;52.208;5.158;2023-05-03T06:51:11;7.25;;;2.72;;
65757;SDS011;52495;52.208;5.158;2023-05-03T06:53:38;5.35;;;2.70;;
65757;SDS011;52495;52.208;5.158;2023-05-03T06:56:05;10.38;;;2.88;;
65757;SDS011;52495;52.208;5.158;2023-05-03T06:58:32;6.38;;;2.50;;
65757;SDS011;52495;52.208;5.158;2023-05-03T07:01:00;5.93;;;2.50;;
65757;SDS011;52495;52.208;5.158;2023-05-03T07:03:27;5.45;;;2.22;;
65757;SDS011;52495;52.208;5.158;2023-05-03T07:05:54;5.97;;;2.08;;
65757;SDS011;52495;52.208;5.158;2023-05-03T07:08:22;3.47;;;2.17;;
65757;SDS011;52495;52.208;5.158;2023-05-03T07:10:48;9.23;;;2.28;;
65757;SDS011;52495;52.208;5.158;2023-05-03T07:13:15;4.50;;;2.15;;
65757;SDS011;52495;52.208;5.158;2023-05-03T07:15:42;4.60;;;2.30;;
65757;SDS011;52495;52.208;5.158;2023-05-03T07:18:09;5.15;;;2.08;;
65757;SDS011;52495;52.208;5.158;2023-05-03T07:20:36;8.10;;;2.20;;
65757;SDS011;52495;52.208;5.158;2023-05-03T07:23:03;6.50;;;2.00;;
65757;SDS011;52495;52.208;5.158;2023-05-03T07:25:32;4.80;;;2.13;;
65757;SDS011;52495;52.208;5.158;2023-05-03T07:27:59;3.78;;;1.42;;
65757;SDS011;52495;52.208;5.158;2023-05-03T07:30:25;4.60;;;1.48;;
65757;SDS011;52495;52.208;5.158;2023-05-03T07:32:53;6.35;;;1.40;;
65757;SDS011;52495;52.208;5.158;2023-05-03T07:35:20;2.85;;;1.30;;
65757;SDS011;52495;52.208;5.158;2023-05-03T07:37:47;5.68;;;1.80;;
65757;SDS011;52495;52.208;5.158;2023-05-03T07:40:14;6.40;;;1.50;;
65757;SDS011;52495;52.208;5.158;2023-05-03T07:42:42;6.07;;;1.40;;
65757;SDS011;52495;52.208;5.158;2023-05-03T07:45:09;5.50;;;1.50;;
65757;SDS011;52495;52.208;5.158;2023-05-03T07:47:36;3.22;;;1.17;;
65757;SDS011;52495;52.208;5.158;2023-05-03T07:50:04;2.35;;;1.50;;
65757;SDS011;52495;52.208;5.158;2023-05-03T07:52:34;3.63;;;1.50;;
65757;SDS011;52495;52.208;5.158;2023-05-03T07:55:02;6.40;;;1.90;;
65757;SDS011;52495;52.208;5.158;2023-05-03T07:57:29;5.82;;;1.95;;
65757;SDS011;52495;52.208;5.158;2023-05-03T07:59:57;4.03;;;1.55;;
65757;SDS011;52495;52.208;5.158;2023-05-03T08:02:24;7.53;;;1.67;;
65757;SDS011;52495;52.208;5.158;2023-05-03T08:04:51;4.45;;;1.80;;
65757;SDS011;52495;52.208;5.158;2023-05-03T08:07:18;9.20;;;1.58;;
65757;SDS011;52495;52.208;5.158;2023-05-03T08:09:45;3.17;;;1.50;;
65757;SDS011;52495;52.208;5.158;2023-05-03T08:12:13;2.90;;;1.33;;
65757;SDS011;52495;52.208;5.158;2023-05-03T08:14:40;3.97;;;1.48;;
65757;SDS011;52495;52.208;5.158;2023-05-03T08:17:08;5.32;;;1.35;;
65757;SDS011;52495;52.208;5.158;2023-05-03T08:19:35;4.32;;;1.50;;
65757;SDS011;52495;52.208;5.158;2023-05-03T08:22:02;4.15;;;1.58;;
65757;SDS011;52495;52.208;5.158;2023-05-03T08:24:29;4.03;;;1.23;;
65757;SDS011;52495;52.208;5.158;2023-05-03T08:26:56;5.00;;;2.15;;
65757;SDS011;52495;52.208;5.158;2023-05-03T08:29:23;5.25;;;1.73;;
65757;SDS011;52495;52.208;5.158;2023-05-03T08:31:49;4.53;;;1.60;;
65757;SDS011;52495;52.208;5.158;2023-05-03T08:34:18;8.15;;;2.00;;
65757;SDS011;52495;52.208;5.158;2023-05-03T08:36:44;4.40;;;1.58;;
65757;SDS011;52495;52.208;5.158;2023-05-03T08:39:11;5.40;;;1.75;;
65757;SDS011;52495;52.208;5.158;2023-05-03T08:41:39;3.97;;;1.20;;
65757;SDS011;52495;52.208;5.158;2023-05-03T08:44:06;4.03;;;1.50;;
65757;SDS011;52495;52.208;5.158;2023-05-03T08:46:36;5.78;;;1.90;;
65757;SDS011;52495;52.208;5.158;2023-05-03T08:49:03;3.90;;;1.40;;
65757;SDS011;52495;52.208;5.158;2023-05-03T08:51:33;4.03;;;1.20;;
65757;SDS011;52495;52.208;5.158;2023-05-03T08:54:00;3.83;;;1.10;;
65757;SDS011;52495;52.208;5.158;2023-05-03T08:56:27;2.08;;;1.48;;
65757;SDS011;52495;52.208;5.158;2023-05-03T08:58:58;4.05;;;1.55;;
65757;SDS011;52495;52.208;5.158;2023-05-03T09:01:31;6.00;;;1.50;;
65757;SDS011;52495;52.208;5.158;2023-05-03T09:03:59;7.55;;;2.15;;
65757;SDS011;52495;52.208;5.158;2023-05-03T09:06:26;5.53;;;1.48;;
65757;SDS011;52495;52.208;5.158;2023-05-03T09:08:54;5.05;;;1.52;;
65757;SDS011;52495;52.208;5.158;2023-05-03T09:11:21;4.95;;;1.95;;
65757;SDS011;52495;52.208;5.158;2023-05-03T09:13:50;5.82;;;2.28;;
65757;SDS011;52495;52.208;5.158;2023-05-03T09:16:21;4.07;;;1.60;;
65757;SDS011;52495;52.208;5.158;2023-05-03T09:18:58;4.05;;;1.52;;
65757;SDS011;52495;52.208;5.158;2023-05-03T09:21:26;3.75;;;1.38;;
65757;SDS011;52495;52.208;5.158;2023-05-03T09:23:54;5.13;;;1.50;;
65757;SDS011;52495;52.208;5.158;2023-05-03T09:26:27;4.70;;;1.95;;
65757;SDS011;52495;52.208;5.158;2023-05-03T09:28:56;10.18;;;2.47;;
65757;SDS011;52495;52.208;5.158;2023-05-03T09:31:25;7.00;;;1.63;;
65757;SDS011;52495;52.208;5.158;2023-05-03T09:33:52;5.15;;;1.80;;
65757;SDS011;52495;52.208;5.158;2023-05-03T09:36:19;4.78;;;1.60;;
65757;SDS011;52495;52.208;5.158;2023-05-03T09:38:46;7.85;;;1.73;;
65757;SDS011;52495;52.208;5.158;2023-05-03T09:41:15;5.80;;;1.95;;
65757;SDS011;52495;52.208;5.158;2023-05-03T09:43:52;6.45;;;1.90;;
65757;SDS011;52495;52.208;5.158;2023-05-03T09:46:20;3.70;;;1.80;;
65757;SDS011;52495;52.208;5.158;2023-05-03T09:48:48;5.15;;;1.98;;
65757;SDS011;52495;52.208;5.158;2023-05-03T09:51:18;6.28;;;1.98;;
65757;SDS011;52495;52.208;5.158;2023-05-03T09:53:46;6.53;;;2.08;;
65757;SDS011;52495;52.208;5.158;2023-05-03T09:56:13;7.63;;;1.88;;
65757;SDS011;52495;52.208;5.158;2023-05-03T09:58:42;4.35;;;1.60;;
65757;SDS011;52495;52.208;5.158;2023-05-03T10:01:09;4.20;;;1.77;;
65757;SDS011;52495;52.208;5.158;2023-05-03T10:03:38;6.22;;;1.95;;
65757;SDS011;52495;52.208;5.158;2023-05-03T10:06:13;4.20;;;1.55;;
65757;SDS011;52495;52.208;5.158;2023-05-03T10:08:47;5.57;;;1.80;;
65757;SDS011;52495;52.208;5.158;2023-05-03T10:11:15;5.57;;;1.75;;
65757;SDS011;52495;52.208;5.158;2023-05-03T10:13:44;4.45;;;1.95;;
65757;SDS011;52495;52.208;5.158;2023-05-03T10:16:12;7.13;;;1.80;;
65757;SDS011;52495;52.208;5.158;2023-05-03T10:18:47;4.32;;;1.63;;
65757;SDS011;52495;52.208;5.158;2023-05-03T10:21:19;5.45;;;1.77;;
65757;SDS011;52495;52.208;5.158;2023-05-03T10:24:09;2.33;;;1.48;;
65757;SDS011;52495;52.208;5.158;2023-05-03T10:26:38;4.45;;;1.58;;
65757;SDS011;52495;52.208;5.158;2023-05-03T10:29:09;4.97;;;1.63;;
65757;SDS011;52495;52.208;5.158;2023-05-03T10:32:28;2.70;;;1.60;;
65757;SDS011;52495;52.208;5.158;2023-05-03T10:34:59;5.35;;;2.20;;
65757;SDS011;52495;52.208;5.158;2023-05-03T10:37:28;4.97;;;1.67;;
65757;SDS011;52495;52.208;5.158;2023-05-03T10:39:55;3.35;;;1.48;;
65757;SDS011;52495;52.208;5.158;2023-05-03T10:42:30;4.40;;;1.60;;
65757;SDS011;52495;52.208;5.158;2023-05-03T10:44:59;6.28;;;2.20;;
65757;SDS011;52495;52.208;5.158;2023-05-03T10:47:27;4.60;;;2.00;;
65757;SDS011;52495;52.208;5.158;2023-05-03T10:52:49;4.75;;;2.00;;
65757;SDS011;52495;52.208;5.158;2023-05-03T10:55:17;3.55;;;2.00;;
65757;SDS011;52495;52.208;5.158;2023-05-03T10:57:48;7.22;;;2.25;;
65757;SDS011;52495;52.208;5.158;2023-05-03T11:00:21;5.22;;;1.80;;
65757;SDS011;52495;52.208;5.158;2023-05-03T11:05:55;3.53;;;2.17;;
65757;SDS011;52495;52.208;5.158;2023-05-03T11:08:22;8.52;;;2.10;;
65757;SDS011;52495;52.208;5.158;2023-05-03T11:10:55;6.13;;;2.13;;
65757;SDS011;52495;52.208;5.158;2023-05-03T11:13:23;6.30;;;2.00;;
65757;SDS011;52495;52.208;5.158;2023-05-03T11:15:52;6.55;;;2.20;;
65757;SDS011;52495;52.208;5.158;2023-05-03T11:18:20;6.68;;;1.90;;
65757;SDS011;52495;52.208;5.158;2023-05-03T11:20:48;7.10;;;2.55;;
65757;SDS011;52495;52.208;5.158;2023-05-03T11:23:15;6.22;;;2.40;;
65757;SDS011;52495;52.208;5.158;2023-05-03T11:25:41;5.93;;;1.90;;
65757;SDS011;52495;52.208;5.158;2023-05-03T11:28:08;3.35;;;1.80;;
65757;SDS011;52495;52.208;5.158;2023-05-03T11:30:35;4.03;;;2.50;;
65757;SDS011;52495;52.208;5.158;2023-05-03T11:33:04;6.28;;;2.45;;
65757;SDS011;52495;52.208;5.158;2023-05-03T11:35:31;4.63;;;2.10;;
65757;SDS011;52495;52.208;5.158;2023-05-03T11:38:07;3.92;;;2.50;;
65757;SDS011;52495;52.208;5.158;2023-05-03T11:40:33;7.18;;;2.38;;
65757;SDS011;52495;52.208;5.158;2023-05-03T11:43:03;4.35;;;2.38;;
65757;SDS011;52495;52.208;5.158;2023-05-03T11:45:31;5.15;;;2.28;;
65757;SDS011;52495;52.208;5.158;2023-05-03T11:48:06;6.15;;;2.33;;
65757;SDS011;52495;52.208;5.158;2023-05-03T11:50:43;7.18;;;2.55;;
65757;SDS011;52495;52.208;5.158;2023-05-03T11:53:11;4.18;;;2.38;;
65757;SDS011;52495;52.208;5.158;2023-05-03T11:55:40;4.40;;;2.22;;
65757;SDS011;52495;52.208;5.158;2023-05-03T11:58:08;5.40;;;2.22;;
65757;SDS011;52495;52.208;5.158;2023-05-03T12:00:37;7.30;;;2.47;;
65757;SDS011;52495;52.208;5.158;2023-05-03T12:03:06;5.60;;;2.38;;
65757;SDS011;52495;52.208;5.158;2023-05-03T12:05:34;4.80;;;2.42;;
65757;SDS011;52495;52.208;5.158;2023-05-03T12:08:01;4.70;;;2.72;;
65757;SDS011;52495;52.208;5.158;2023-05-03T12:10:30;6.90;;;2.92;;
65757;SDS011;52495;52.208;5.158;2023-05-03T12:12:58;4.93;;;2.55;;
65757;SDS011;52495;52.208;5.158;2023-05-03T12:15:32;7.22;;;2.85;;
65757;SDS011;52495;52.208;5.158;2023-05-03T12:18:01;5.15;;;2.55;;
65757;SDS011;52495;52.208;5.158;2023-05-03T12:20:30;5.05;;;2.40;;
65757;SDS011;52495;52.208;5.158;2023-05-03T12:22:59;4.43;;;2.70;;
65757;SDS011;52495;52.208;5.158;2023-05-03T12:25:27;3.22;;;2.45;;
65757;SDS011;52495;52.208;5.158;2023-05-03T12:27:56;6.75;;;2.58;;
65757;SDS011;52495;52.208;5.158;2023-05-03T12:30:24;5.07;;;2.47;;
65757;SDS011;52495;52.208;5.158;2023-05-03T12:32:52;6.97;;;2.60;;
65757;SDS011;52495;52.208;5.158;2023-05-03T12:35:19;6.30;;;3.05;;
65757;SDS011;52495;52.208;5.158;2023-05-03T12:37:49;6.60;;;2.58;;
65757;SDS011;52495;52.208;5.158;2023-05-03T12:40:17;6.85;;;2.83;;
65757;SDS011;52495;52.208;5.158;2023-05-03T12:42:45;3.65;;;2.20;;
65757;SDS011;52495;52.208;5.158;2023-05-03T12:45:11;5.72;;;2.53;;
65757;SDS011;52495;52.208;5.158;2023-05-03T12:47:38;6.57;;;2.40;;
65757;SDS011;52495;52.208;5.158;2023-05-03T12:50:06;5.22;;;2.13;;
65757;SDS011;52495;52.208;5.158;2023-05-03T12:52:35;5.80;;;2.22;;
65757;SDS011;52495;52.208;5.158;2023-05-03T12:55:04;4.80;;;2.75;;
65757;SDS011;52495;52.208;5.158;2023-05-03T12:57:32;5.00;;;2.28;;
65757;SDS011;52495;52.208;5.158;2023-05-03T13:00:03;4.75;;;2.30;;
65757;SDS011;52495;52.208;5.158;2023-05-03T13:02:30;6.13;;;2.13;;
65757;SDS011;52495;52.208;5.158;2023-05-03T13:04:57;5.43;;;2.10;;
65757;SDS011;52495;52.208;5.158;2023-05-03T13:07:24;6.00;;;2.10;;
65757;SDS011;52495;52.208;5.158;2023-05-03T13:09:52;4.93;;;2.20;;
65757;SDS011;52495;52.208;5.158;2023-05-03T13:12:21;5.25;;;2.20;;
65757;SDS011;52495;52.208;5.158;2023-05-03T13:14:47;5.25;;;2.60;;
65757;SDS011;52495;52.208;5.158;2023-05-03T13:17:16;7.38;;;2.75;;
65757;SDS011;52495;52.208;5.158;2023-05-03T13:19:44;4.15;;;2.58;;
65757;SDS011;52495;52.208;5.158;2023-05-03T13:22:12;4.68;;;2.42;;
65757;SDS011;52495;52.208;5.158;2023-05-03T13:24:40;3.13;;;2.20;;
65757;SDS011;52495;52.208;5.158;2023-05-03T13:27:10;3.27;;;2.30;;
65757;SDS011;52495;52.208;5.158;2023-05-03T13:29:38;6.07;;;2.58;;
65757;SDS011;52495;52.208;5.158;2023-05-03T13:32:05;9.73;;;2.63;;
65757;SDS011;52495;52.208;5.158;2023-05-03T13:34:33;7.85;;;2.70;;
65757;SDS011;52495;52.208;5.158;2023-05-03T13:37:00;6.40;;;3.25;;
65757;SDS011;52495;52.208;5.158;2023-05-03T13:39:28;6.38;;;2.90;;
65757;SDS011;52495;52.208;5.158;2023-05-03T13:41:55;8.10;;;2.80;;
65757;SDS011;52495;52.208;5.158;2023-05-03T13:44:44;4.95;;;2.63;;
65757;SDS011;52495;52.208;5.158;2023-05-03T13:47:17;5.32;;;2.80;;
65757;SDS011;52495;52.208;5.158;2023-05-03T13:50:07;5.38;;;3.35;;
65757;SDS011;52495;52.208;5.158;2023-05-03T13:52:53;5.68;;;2.80;;
65757;SDS011;52495;52.208;5.158;2023-05-03T13:55:31;6.25;;;2.97;;
65757;SDS011;52495;52.208;5.158;2023-05-03T13:58:20;9.23;;;3.58;;
65757;SDS011;52495;52.208;5.158;2023-05-03T14:00:53;6.25;;;2.80;;
65757;SDS011;52495;52.208;5.158;2023-05-03T14:03:19;4.25;;;2.17;;
65757;SDS011;52495;52.208;5.158;2023-05-03T14:05:46;7.40;;;3.50;;
65757;SDS011;52495;52.208;5.158;2023-05-03T14:08:14;4.53;;;3.17;;
65757;SDS011;52495;52.208;5.158;2023-05-03T14:10:41;4.43;;;2.60;;
65757;SDS011;52495;52.208;5.158;2023-05-03T14:13:08;6.57;;;3.20;;
65757;SDS011;52495;52.208;5.158;2023-05-03T14:15:37;6.60;;;3.38;;
65757;SDS011;52495;52.208;5.158;2023-05-03T14:18:06;8.45;;;3.85;;
65757;SDS011;52495;52.208;5.158;2023-05-03T14:20:34;6.13;;;3.58;;
65757;SDS011;52495;52.208;5.158;2023-05-03T14:23:01;5.97;;;2.78;;
65757;SDS011;52495;52.208;5.158;2023-05-03T14:25:28;4.72;;;3.10;;
65757;SDS011;52495;52.208;5.158;2023-05-03T14:27:55;7.63;;;3.47;;
65757;SDS011;52495;52.208;5.158;2023-05-03T14:30:22;4.93;;;2.80;;
65757;SDS011;52495;52.208;5.158;2023-05-03T14:32:49;8.07;;;3.40;;
65757;SDS011;52495;52.208;5.158;2023-05-03T14:35:17;6.75;;;3.17;;
65757;SDS011;52495;52.208;5.158;2023-05-03T14:37:44;5.18;;;2.75;;
65757;SDS011;52495;52.208;5.158;2023-05-03T14:40:14;7.07;;;3.17;;
65757;SDS011;52495;52.208;5.158;2023-05-03T14:42:42;5.85;;;3.15;;
65757;SDS011;52495;52.208;5.158;2023-05-03T14:45:11;7.57;;;3.38;;
65757;SDS011;52495;52.208;5.158;2023-05-03T14:47:39;5.63;;;3.30;;
65757;SDS011;52495;52.208;5.158;2023-05-03T14:50:06;6.90;;;3.45;;
65757;SDS011;52495;52.208;5.158;2023-05-03T14:52:35;4.38;;;3.30;;
65757;SDS011;52495;52.208;5.158;2023-05-03T14:55:02;7.47;;;3.30;;
65757;SDS011;52495;52.208;5.158;2023-05-03T14:57:34;5.72;;;2.80;;
65757;SDS011;52495;52.208;5.158;2023-05-03T15:00:03;5.05;;;3.10;;
65757;SDS011;52495;52.208;5.158;2023-05-03T15:02:38;5.07;;;3.15;;
65757;SDS011;52495;52.208;5.158;2023-05-03T15:05:05;9.05;;;3.53;;